Terminal Aerodrome Forecast
Issued by NWS

Home | Current Version | Previous Version | Text Only | Print | Product List | Glossary On
Versions: 1 2 3 4 5 6 7 8 9 10 11 12 13 14 15 16 17 18 19 20 21 22 23 24 25 26 27 28 29 30 31 32 33 34 35
000
FTUS43 KABR 280632 AAA
TAFPIR
TAF AMD
KPIR 280632Z 2807/2906 22016KT P6SM FEW110
     FM280900 22010KT P6SM OVC100
     FM281200 30019G28KT P6SM BKN250
     FM282100 29022G32KT P6SM SKC=

USA.gov is the U.S. government's official web portal to all federal, state and local government web resources and services.